Accueil
METAR-TAF:

METAR-TAF

Aéroports :

Mönchengladbach, Allemagne

latitude: 51-13-49N, longitude: 006-30-16E, altitude: 38 m

Observation

Le bulletin a été fait il y a 21 minutes, à 02:50 UTC
Vent 4 kt de est/sud-est
Température 11°C
Humidité 76%
Pression 1026 hPa
Visibilité 10 km ou plus

METAR: EDLN 080250Z AUTO 12004KT 9999 // NCD 11/07 Q1026

Heure: 05:11 (03:11 UTC)

Prévision

Le bulletin a été fait il y a 10 heures et 11 minutes, à 17:00 UTC
Prévision valable du 07 à 18 UTC au 08 à 03 UTC
Vent 5 kt de nord-est
Visibilité 10 km ou plus
pas de nuages en-dessous de 1500 mètres et pas de cumulonimbus.
Evoluant progressivement
du 07 à 21 UTC au 07 à 24 UTC
Vent 4 kt de est/sud-est

TAF: EDLN 071700Z 0718/0803 05005KT CAVOK BECMG 0721/0724 11004KT

Observations et prévisions météorologiques de plus de 4000 aéroports (messages METAR et TAF).

Les stations disponibles sont représentées par des disques jaunes et rouges sur la carte.

Passer la souris dessus pour voir le nom de la station.

Cliquer dessus pour voir les observations et prévisions météorologiques.

Pour changer de carte: cliquez sur les boutons verts avec une croix noire pour zoomer, sur le bouton vert avec un tiret pour effectuer un zoom arrière, ou sur les flèches vertes pour les cartes adjacentes.


METAR-TAF: